Terminal Aerodrome Forecast
Issued by NWS Upton, NY

Home | Current Version | Previous Version | Text Only | Print | Product List | Glossary On
Versions: 1 2 3 4 5 6 7 8 9 10 11 12 13 14 15 16 17 18 19 20 21 22 23 24 25 26 27 28 29 30 31 32 33 34 35 36 37 38 39 40
519
FTUS41 KOKX 171915 AAB
TAFEWR
TAF AMD
KEWR 171915Z 1719/1824 11003KT 3SM -RA BR SCT008 OVC012
      TEMPO 1719/1721 2SM -RA BR BKN008 OVC012
     FM172100 11007KT 2SM -RA BR SCT006 OVC010
     FM172300 06005KT 1 1/2SM -RA BR OVC005
     FM180700 01005KT 3SM -RA BR OVC005
     FM181300 34007KT 4SM -RA BR BKN006 OVC010
     FM181600 34008KT 5SM BR BKN010 OVC020=

USA.gov is the U.S. government's official web portal to all federal, state and local government web resources and services.